createdAt,value
2018-06-20T00:01:07.513Z,24.96
2018-06-20T00:03:38.087Z,24.97
2018-06-20T00:06:08.193Z,24.96
2018-06-20T00:08:42.970Z,24.96
2018-06-20T00:11:13.320Z,24.94
2018-06-20T00:13:44.566Z,24.95
2018-06-20T00:16:15.492Z,24.88
2018-06-20T00:18:47.797Z,24.79
2018-06-20T00:21:19.198Z,24.83
2018-06-20T00:23:50.229Z,24.89
2018-06-20T00:26:22.762Z,24.90
2018-06-20T00:28:53.692Z,24.88
2018-06-20T00:31:25.665Z,24.89
2018-06-20T00:33:57.147Z,24.87
2018-06-20T00:36:28.736Z,24.86
2018-06-20T00:38:59.529Z,24.85
2018-06-20T00:41:30.013Z,24.82
2018-06-20T00:44:00.190Z,24.82
2018-06-20T00:46:31.827Z,24.87
2018-06-20T00:49:03.991Z,25.00
2018-06-20T00:51:36.038Z,25.08
2018-06-20T00:54:07.242Z,25.17
2018-06-20T00:56:38.624Z,25.23
2018-06-20T00:59:08.952Z,25.29
2018-06-20T01:01:41.413Z,25.38
2018-06-20T01:04:14.613Z,25.43
2018-06-20T01:06:46.178Z,25.47
2018-06-20T01:09:17.737Z,25.52
2018-06-20T01:11:50.749Z,25.55
2018-06-20T01:14:24.562Z,25.57
2018-06-20T01:16:59.047Z,25.60
2018-06-20T01:19:32.711Z,25.63
2018-06-20T01:22:05.425Z,25.66
2018-06-20T01:24:37.026Z,25.68
2018-06-20T01:27:07.691Z,25.70
2018-06-20T01:29:38.390Z,25.71
2018-06-20T01:32:08.903Z,25.74
2018-06-20T01:34:39.567Z,25.74
2018-06-20T01:37:11.180Z,25.73
2018-06-20T01:39:43.203Z,25.74
2018-06-20T01:42:13.806Z,25.73
2018-06-20T01:44:44.929Z,25.77
2018-06-20T01:47:15.543Z,25.77
2018-06-20T01:49:45.808Z,25.76
2018-06-20T01:52:17.250Z,25.78
2018-06-20T01:54:47.352Z,25.76
2018-06-20T01:57:17.696Z,25.76
2018-06-20T01:59:47.931Z,25.78
2018-06-20T02:02:18.647Z,25.78
2018-06-20T02:04:49.578Z,25.77
2018-06-20T02:07:20.353Z,25.78
2018-06-20T02:09:51.043Z,25.79
2018-06-20T02:12:21.755Z,25.79
2018-06-20T02:14:52.044Z,25.79
2018-06-20T02:17:22.579Z,25.78
2018-06-20T02:19:52.696Z,25.77
2018-06-20T02:22:23.240Z,25.78
2018-06-20T02:24:53.989Z,25.76
2018-06-20T02:27:24.333Z,25.69
2018-06-20T02:29:54.452Z,25.64
2018-06-20T02:32:24.724Z,25.60
2018-06-20T02:34:54.905Z,25.55
2018-06-20T02:37:25.437Z,25.57
2018-06-20T02:39:55.910Z,25.45
2018-06-20T02:42:26.407Z,25.49
2018-06-20T02:44:57.588Z,25.51
2018-06-20T02:47:33.311Z,25.44
2018-06-20T02:50:04.424Z,25.50
2018-06-20T02:52:35.439Z,25.52
2018-06-20T02:55:05.954Z,25.53
2018-06-20T02:57:37.992Z,25.56
2018-06-20T03:00:08.199Z,25.61
2018-06-20T03:02:39.677Z,25.63
2018-06-20T03:05:10.553Z,25.65
2018-06-20T03:07:41.628Z,25.65
2018-06-20T03:10:11.931Z,25.68
2018-06-20T03:12:44.584Z,25.68
2018-06-20T03:15:16.896Z,25.67
2018-06-20T03:17:47.721Z,25.71
2018-06-20T03:20:18.659Z,25.70
2018-06-20T03:22:48.942Z,25.67
2018-06-20T03:25:19.321Z,25.66
2018-06-20T03:27:49.877Z,25.68
2018-06-20T03:30:20.447Z,25.68
2018-06-20T03:32:51.399Z,25.66
2018-06-20T03:35:22.313Z,25.67
2018-06-20T03:37:52.913Z,25.67
2018-06-20T03:40:24.706Z,25.67
2018-06-20T03:42:55.712Z,25.67
2018-06-20T03:45:27.122Z,25.66
2018-06-20T03:47:58.355Z,25.67
2018-06-20T03:50:29.890Z,25.66
2018-06-20T03:53:01.328Z,25.65
2018-06-20T03:55:31.599Z,25.66
2018-06-20T03:58:01.917Z,25.65
2018-06-20T04:00:32.224Z,25.65
2018-06-20T04:03:02.959Z,25.66
2018-06-20T04:05:33.809Z,25.62
2018-06-20T04:08:04.510Z,25.65
2018-06-20T04:10:34.930Z,25.65
2018-06-20T04:13:05.321Z,25.62
2018-06-20T04:15:35.776Z,25.67
2018-06-20T04:18:06.368Z,25.66
2018-06-20T04:20:37.368Z,25.65
2018-06-20T04:23:08.082Z,25.65
2018-06-20T04:25:39.231Z,25.67
2018-06-20T04:28:09.672Z,25.65
2018-06-20T04:30:40.409Z,25.66
2018-06-20T04:33:11.064Z,25.66
2018-06-20T04:35:41.487Z,25.65
2018-06-20T04:38:12.285Z,25.68
2018-06-20T04:40:42.823Z,25.67
2018-06-20T04:43:13.051Z,25.65
2018-06-20T04:45:43.768Z,25.67
2018-06-20T04:48:14.775Z,25.68
2018-06-20T04:50:45.158Z,25.65
2018-06-20T04:53:15.242Z,25.65
2018-06-20T04:55:45.788Z,25.64
2018-06-20T04:58:16.576Z,25.58
2018-06-20T05:00:47.190Z,25.57
2018-06-20T05:03:17.742Z,25.51
2018-06-20T05:05:47.921Z,25.45
2018-06-20T05:08:18.720Z,25.50
2018-06-20T05:10:49.367Z,25.49
2018-06-20T05:13:19.705Z,25.45
2018-06-20T05:15:50.527Z,25.42
2018-06-20T05:18:20.646Z,25.46
2018-06-20T05:20:51.289Z,25.47
2018-06-20T05:23:21.607Z,25.49
2018-06-20T05:25:52.067Z,25.45
2018-06-20T05:28:22.319Z,25.46
2018-06-20T05:30:54.121Z,25.42
2018-06-20T05:33:29.473Z,25.41
2018-06-20T05:36:01.745Z,25.45
2018-06-20T05:38:32.660Z,25.41
2018-06-20T05:41:04.481Z,25.43
2018-06-20T05:43:34.942Z,25.42
2018-06-20T05:46:05.980Z,25.44
2018-06-20T05:48:36.509Z,25.41
2018-06-20T05:51:06.783Z,25.40
2018-06-20T05:53:37.187Z,25.42
2018-06-20T05:56:08.065Z,25.43
2018-06-20T05:58:38.978Z,25.43
2018-06-20T06:01:09.280Z,25.40
2018-06-20T06:03:40.075Z,25.44
2018-06-20T06:06:15.814Z,25.46
2018-06-20T06:08:47.056Z,25.46
